sensor_id;sensor_type;location;lat;lon;timestamp;pressure;altitude;pressure_sealevel;temperature;humidity
42247;BME280;27913;42.722;23.268;2023-03-15T00:04:38;93958.63;;;5.68;55.98
42247;BME280;27913;42.722;23.268;2023-03-15T00:07:04;93989.09;;;5.83;55.71
42247;BME280;27913;42.722;23.268;2023-03-15T00:09:29;93950.97;;;5.52;56.14
42247;BME280;27913;42.722;23.268;2023-03-15T00:11:55;93985.88;;;5.66;57.49
42247;BME280;27913;42.722;23.268;2023-03-15T00:14:21;93975.38;;;5.44;57.61
42247;BME280;27913;42.722;23.268;2023-03-15T00:16:46;93967.88;;;5.26;58.57
42247;BME280;27913;42.722;23.268;2023-03-15T00:19:12;94056.78;;;5.85;57.57
42247;BME280;27913;42.722;23.268;2023-03-15T00:21:38;93978.25;;;5.34;58.31
42247;BME280;27913;42.722;23.268;2023-03-15T00:24:05;93968.78;;;5.33;58.35
42247;BME280;27913;42.722;23.268;2023-03-15T00:26:30;94043.91;;;5.83;58.69
42247;BME280;27913;42.722;23.268;2023-03-15T00:28:56;94043.34;;;5.88;58.47
42247;BME280;27913;42.722;23.268;2023-03-15T00:31:23;94043.72;;;5.85;59.34
42247;BME280;27913;42.722;23.268;2023-03-15T00:33:51;93953.34;;;5.31;59.97
42247;BME280;27913;42.722;23.268;2023-03-15T00:36:21;94036.16;;;5.75;58.89
42247;BME280;27913;42.722;23.268;2023-03-15T00:38:51;94029.78;;;5.77;58.91
42247;BME280;27913;42.722;23.268;2023-03-15T00:41:18;94014.75;;;5.64;59.66
42247;BME280;27913;42.722;23.268;2023-03-15T00:43:44;94022.50;;;5.73;60.27
42247;BME280;27913;42.722;23.268;2023-03-15T00:46:11;94001.91;;;5.48;59.48
42247;BME280;27913;42.722;23.268;2023-03-15T00:48:36;93944.97;;;5.21;59.50
42247;BME280;27913;42.722;23.268;2023-03-15T00:51:11;94023.56;;;5.78;59.17
42247;BME280;27913;42.722;23.268;2023-03-15T00:53:39;94008.00;;;5.70;59.56
42247;BME280;27913;42.722;23.268;2023-03-15T00:56:07;94006.47;;;5.76;59.74
42247;BME280;27913;42.722;23.268;2023-03-15T00:58:32;94007.72;;;5.80;59.54
42247;BME280;27913;42.722;23.268;2023-03-15T01:00:58;93957.00;;;5.52;60.06
42247;BME280;27913;42.722;23.268;2023-03-15T01:03:26;93963.69;;;5.55;59.45
42247;BME280;27913;42.722;23.268;2023-03-15T01:05:52;94002.94;;;5.84;59.52
42247;BME280;27913;42.722;23.268;2023-03-15T01:08:17;93982.19;;;5.75;59.66
42247;BME280;27913;42.722;23.268;2023-03-15T01:10:42;93969.94;;;5.61;59.25
42247;BME280;27913;42.722;23.268;2023-03-15T01:13:08;93908.84;;;5.18;59.67
42247;BME280;27913;42.722;23.268;2023-03-15T01:15:33;94002.75;;;5.85;60.17
42247;BME280;27913;42.722;23.268;2023-03-15T01:17:59;93995.03;;;5.77;60.68
42247;BME280;27913;42.722;23.268;2023-03-15T01:20:24;93998.63;;;5.61;59.96
42247;BME280;27913;42.722;23.268;2023-03-15T01:22:50;93995.22;;;5.45;60.36
42247;BME280;27913;42.722;23.268;2023-03-15T01:25:15;93988.22;;;5.46;60.76
42247;BME280;27913;42.722;23.268;2023-03-15T01:27:41;93979.84;;;5.50;61.44
42247;BME280;27913;42.722;23.268;2023-03-15T01:30:07;93978.97;;;5.58;61.58
42247;BME280;27913;42.722;23.268;2023-03-15T01:32:32;93966.47;;;5.53;60.65
42247;BME280;27913;42.722;23.268;2023-03-15T01:34:58;93975.09;;;5.54;59.78
42247;BME280;27913;42.722;23.268;2023-03-15T01:37:24;93976.44;;;5.50;60.52
42247;BME280;27913;42.722;23.268;2023-03-15T01:39:50;93870.13;;;4.85;59.76
42247;BME280;27913;42.722;23.268;2023-03-15T01:42:16;93961.97;;;5.47;60.36
42247;BME280;27913;42.722;23.268;2023-03-15T01:44:51;93959.63;;;5.52;61.12
42247;BME280;27913;42.722;23.268;2023-03-15T01:47:17;93873.25;;;4.95;59.90
42247;BME280;27913;42.722;23.268;2023-03-15T01:49:46;93935.19;;;5.23;60.32
42247;BME280;27913;42.722;23.268;2023-03-15T01:52:19;93957.28;;;5.42;60.32
42247;BME280;27913;42.722;23.268;2023-03-15T01:57:19;93946.06;;;5.27;60.69
42247;BME280;27913;42.722;23.268;2023-03-15T01:59:56;93951.78;;;5.22;61.63
42247;BME280;27913;42.722;23.268;2023-03-15T02:02:24;93911.44;;;5.03;61.87
42247;BME280;27913;42.722;23.268;2023-03-15T02:05:10;93941.28;;;5.15;62.03
42247;BME280;27913;42.722;23.268;2023-03-15T02:07:41;93931.59;;;5.09;62.43
42247;BME280;27913;42.722;23.268;2023-03-15T02:10:19;93862.72;;;4.58;62.63
42247;BME280;27913;42.722;23.268;2023-03-15T02:12:50;93924.91;;;4.91;63.33
42247;BME280;27913;42.722;23.268;2023-03-15T02:15:17;93932.81;;;4.98;63.16
42247;BME280;27913;42.722;23.268;2023-03-15T02:17:46;93922.03;;;5.01;63.48
42247;BME280;27913;42.722;23.268;2023-03-15T02:23:19;93914.50;;;5.06;62.75
42247;BME280;27913;42.722;23.268;2023-03-15T02:28:41;93891.69;;;4.93;62.59
42247;BME280;27913;42.722;23.268;2023-03-15T02:31:07;93882.94;;;5.01;62.94
42247;BME280;27913;42.722;23.268;2023-03-15T02:33:41;93915.22;;;5.15;62.73
42247;BME280;27913;42.722;23.268;2023-03-15T02:36:17;93923.22;;;5.14;63.35
42247;BME280;27913;42.722;23.268;2023-03-15T02:38:43;93914.94;;;5.10;62.67
42247;BME280;27913;42.722;23.268;2023-03-15T02:41:09;93897.22;;;4.90;61.98
42247;BME280;27913;42.722;23.268;2023-03-15T02:43:35;93912.72;;;5.07;62.30
42247;BME280;27913;42.722;23.268;2023-03-15T02:46:01;93889.53;;;4.97;62.25
42247;BME280;27913;42.722;23.268;2023-03-15T02:48:28;93849.59;;;4.81;61.22
42247;BME280;27913;42.722;23.268;2023-03-15T02:50:56;93893.91;;;5.12;59.97
42247;BME280;27913;42.722;23.268;2023-03-15T02:53:21;93904.41;;;5.18;60.59
42247;BME280;27913;42.722;23.268;2023-03-15T02:55:47;93902.63;;;5.19;63.19
42247;BME280;27913;42.722;23.268;2023-03-15T02:58:13;93889.16;;;5.15;61.99
42247;BME280;27913;42.722;23.268;2023-03-15T03:00:38;93894.91;;;5.26;61.64
42247;BME280;27913;42.722;23.268;2023-03-15T03:03:04;93868.84;;;5.11;62.41
42247;BME280;27913;42.722;23.268;2023-03-15T03:05:29;93846.47;;;5.01;62.97
42247;BME280;27913;42.722;23.268;2023-03-15T03:07:55;93782.63;;;4.60;63.19
42247;BME280;27913;42.722;23.268;2023-03-15T03:10:21;93863.72;;;5.17;62.94
42247;BME280;27913;42.722;23.268;2023-03-15T03:12:47;93878.88;;;5.29;63.18
42247;BME280;27913;42.722;23.268;2023-03-15T03:15:17;93879.88;;;5.28;63.99
42247;BME280;27913;42.722;23.268;2023-03-15T03:17:43;93784.69;;;4.65;64.23
42247;BME280;27913;42.722;23.268;2023-03-15T03:20:10;93836.03;;;5.01;63.68
42247;BME280;27913;42.722;23.268;2023-03-15T03:22:37;93875.69;;;5.27;64.12
42247;BME280;27913;42.722;23.268;2023-03-15T03:25:03;93799.84;;;4.76;64.23
42247;BME280;27913;42.722;23.268;2023-03-15T03:27:30;93854.28;;;5.16;63.33
42247;BME280;27913;42.722;23.268;2023-03-15T03:29:57;93866.66;;;5.29;63.91
42247;BME280;27913;42.722;23.268;2023-03-15T03:32:23;93846.38;;;5.10;64.32
42247;BME280;27913;42.722;23.268;2023-03-15T03:34:48;93849.06;;;5.01;64.13
42247;BME280;27913;42.722;23.268;2023-03-15T03:37:18;93865.25;;;4.97;65.08
42247;BME280;27913;42.722;23.268;2023-03-15T03:39:43;93787.38;;;4.41;65.64
42247;BME280;27913;42.722;23.268;2023-03-15T03:42:09;93864.25;;;4.98;64.76
42247;BME280;27913;42.722;23.268;2023-03-15T03:44:35;93828.88;;;4.73;64.56
42247;BME280;27913;42.722;23.268;2023-03-15T03:47:01;93806.59;;;4.55;65.59
42247;BME280;27913;42.722;23.268;2023-03-15T03:49:26;93871.63;;;4.79;65.75
42247;BME280;27913;42.722;23.268;2023-03-15T03:51:52;93839.81;;;4.53;65.07
42247;BME280;27913;42.722;23.268;2023-03-15T03:54:18;93850.16;;;4.77;65.31
42247;BME280;27913;42.722;23.268;2023-03-15T03:56:47;93846.13;;;4.89;65.72
42247;BME280;27913;42.722;23.268;2023-03-15T03:59:13;93806.69;;;4.77;65.65
42247;BME280;27913;42.722;23.268;2023-03-15T04:01:39;93840.09;;;5.04;64.73
42247;BME280;27913;42.722;23.268;2023-03-15T04:04:06;93835.94;;;5.10;65.14
42247;BME280;27913;42.722;23.268;2023-03-15T04:06:32;93747.31;;;4.57;64.77
42247;BME280;27913;42.722;23.268;2023-03-15T04:08:58;93794.00;;;4.89;64.83
42247;BME280;27913;42.722;23.268;2023-03-15T04:11:24;93766.91;;;4.68;63.53
42247;BME280;27913;42.722;23.268;2023-03-15T04:13:52;93759.34;;;4.74;64.07
42247;BME280;27913;42.722;23.268;2023-03-15T04:16:18;93835.50;;;5.21;64.56
42247;BME280;27913;42.722;23.268;2023-03-15T04:18:43;93740.78;;;4.62;62.72
42247;BME280;27913;42.722;23.268;2023-03-15T04:21:09;93836.91;;;5.24;63.00
42247;BME280;27913;42.722;23.268;2023-03-15T04:23:36;93820.03;;;5.04;62.82
42247;BME280;27913;42.722;23.268;2023-03-15T04:26:02;93743.75;;;4.58;63.22
42247;BME280;27913;42.722;23.268;2023-03-15T04:28:30;93829.19;;;5.15;63.32
42247;BME280;27913;42.722;23.268;2023-03-15T04:30:56;93833.59;;;5.15;63.15
42247;BME280;27913;42.722;23.268;2023-03-15T04:33:24;93828.22;;;5.01;61.59
42247;BME280;27913;42.722;23.268;2023-03-15T04:35:49;93807.31;;;4.94;63.23
42247;BME280;27913;42.722;23.268;2023-03-15T04:38:17;93802.91;;;4.80;62.76
42247;BME280;27913;42.722;23.268;2023-03-15T04:40:43;93813.44;;;4.87;62.85
42247;BME280;27913;42.722;23.268;2023-03-15T04:43:09;93813.84;;;4.90;62.96
42247;BME280;27913;42.722;23.268;2023-03-15T04:45:35;93804.16;;;4.84;63.37
42247;BME280;27913;42.722;23.268;2023-03-15T04:48:01;93723.81;;;4.35;62.16
42247;BME280;27913;42.722;23.268;2023-03-15T04:50:28;93817.53;;;4.96;61.69
42247;BME280;27913;42.722;23.268;2023-03-15T04:52:54;93803.81;;;4.87;61.93
42247;BME280;27913;42.722;23.268;2023-03-15T04:55:20;93796.69;;;4.96;62.32
42247;BME280;27913;42.722;23.268;2023-03-15T04:57:45;93813.94;;;5.12;61.57
42247;BME280;27913;42.722;23.268;2023-03-15T05:00:12;93811.59;;;5.17;63.65
42247;BME280;27913;42.722;23.268;2023-03-15T05:02:38;93809.69;;;5.26;64.67
42247;BME280;27913;42.722;23.268;2023-03-15T05:05:10;93776.94;;;5.02;60.76
42247;BME280;27913;42.722;23.268;2023-03-15T05:07:36;93823.34;;;5.28;62.55
42247;BME280;27913;42.722;23.268;2023-03-15T05:10:03;93822.16;;;5.31;62.51
42247;BME280;27913;42.722;23.268;2023-03-15T05:12:29;93796.75;;;5.18;61.93
42247;BME280;27913;42.722;23.268;2023-03-15T05:14:56;93819.63;;;5.38;62.55
42247;BME280;27913;42.722;23.268;2023-03-15T05:17:22;93806.88;;;5.28;60.59
42247;BME280;27913;42.722;23.268;2023-03-15T05:19:48;93806.31;;;5.32;59.89
42247;BME280;27913;42.722;23.268;2023-03-15T05:22:14;93749.34;;;5.07;58.91
42247;BME280;27913;42.722;23.268;2023-03-15T05:24:39;93794.31;;;5.31;57.25
42247;BME280;27913;42.722;23.268;2023-03-15T05:28:42;93725.00;;;5.00;56.60
42247;BME280;27913;42.722;23.268;2023-03-15T05:31:09;93815.88;;;5.62;56.67
42247;BME280;27913;42.722;23.268;2023-03-15T05:33:35;93800.53;;;5.52;56.58
42247;BME280;27913;42.722;23.268;2023-03-15T05:36:00;93753.34;;;5.25;56.52
42247;BME280;27913;42.722;23.268;2023-03-15T05:38:26;93792.50;;;5.54;58.47
42247;BME280;27913;42.722;23.268;2023-03-15T05:40:52;93742.47;;;5.22;55.71
42247;BME280;27913;42.722;23.268;2023-03-15T05:43:18;93807.38;;;5.75;56.35
42247;BME280;27913;42.722;23.268;2023-03-15T05:45:43;93810.41;;;5.79;55.81
42247;BME280;27913;42.722;23.268;2023-03-15T05:48:11;93814.44;;;5.82;55.24
42247;BME280;27913;42.722;23.268;2023-03-15T05:50:36;93799.53;;;5.75;56.55
42247;BME280;27913;42.722;23.268;2023-03-15T05:53:02;93811.91;;;5.88;56.75
42247;BME280;27913;42.722;23.268;2023-03-15T05:55:27;93794.53;;;5.74;53.84
42247;BME280;27913;42.722;23.268;2023-03-15T05:57:53;93811.09;;;5.88;55.30
42247;BME280;27913;42.722;23.268;2023-03-15T06:00:19;93780.84;;;5.72;53.97
42247;BME280;27913;42.722;23.268;2023-03-15T06:02:45;93755.38;;;5.52;54.49
42247;BME280;27913;42.722;23.268;2023-03-15T06:05:11;93752.09;;;5.65;54.71
42247;BME280;27913;42.722;23.268;2023-03-15T06:07:37;93808.78;;;6.00;54.35
42247;BME280;27913;42.722;23.268;2023-03-15T06:10:03;93812.03;;;6.02;53.68
42247;BME280;27913;42.722;23.268;2023-03-15T06:12:29;93807.72;;;6.09;51.67
42247;BME280;27913;42.722;23.268;2023-03-15T06:14:55;93768.16;;;5.90;52.04
42247;BME280;27913;42.722;23.268;2023-03-15T06:17:21;93809.06;;;6.05;48.68
42247;BME280;27913;42.722;23.268;2023-03-15T06:19:46;93802.50;;;5.94;49.11
42247;BME280;27913;42.722;23.268;2023-03-15T06:22:12;93799.59;;;5.82;49.04
42247;BME280;27913;42.722;23.268;2023-03-15T06:24:37;93823.63;;;6.14;48.90
42247;BME280;27913;42.722;23.268;2023-03-15T06:27:03;93823.66;;;6.21;49.24
42247;BME280;27913;42.722;23.268;2023-03-15T06:29:29;93790.06;;;6.11;49.83
42247;BME280;27913;42.722;23.268;2023-03-15T06:31:54;93810.66;;;6.28;50.33
42247;BME280;27913;42.722;23.268;2023-03-15T06:34:20;93814.56;;;6.39;50.33
42247;BME280;27913;42.722;23.268;2023-03-15T06:36:46;93807.53;;;6.39;49.31
42247;BME280;27913;42.722;23.268;2023-03-15T06:39:12;93808.25;;;6.26;48.83
42247;BME280;27913;42.722;23.268;2023-03-15T06:41:38;93802.63;;;6.30;49.69
42247;BME280;27913;42.722;23.268;2023-03-15T06:44:04;93789.28;;;6.18;49.50
42247;BME280;27913;42.722;23.268;2023-03-15T06:46:30;93778.84;;;6.18;49.77
42247;BME280;27913;42.722;23.268;2023-03-15T06:48:57;93795.06;;;6.42;50.91
42247;BME280;27913;42.722;23.268;2023-03-15T06:51:23;93799.34;;;6.49;48.93
42247;BME280;27913;42.722;23.268;2023-03-15T06:53:48;93792.59;;;6.62;50.24
42247;BME280;27913;42.722;23.268;2023-03-15T06:56:14;93798.22;;;6.59;48.64
42247;BME280;27913;42.722;23.268;2023-03-15T06:58:40;93810.47;;;6.58;48.33
42247;BME280;27913;42.722;23.268;2023-03-15T07:01:05;93775.41;;;6.46;49.26
42247;BME280;27913;42.722;23.268;2023-03-15T07:03:31;93806.75;;;6.46;48.94
42247;BME280;27913;42.722;23.268;2023-03-15T07:05:57;93723.06;;;5.97;49.88
42247;BME280;27913;42.722;23.268;2023-03-15T07:08:24;93771.56;;;6.42;49.65
42247;BME280;27913;42.722;23.268;2023-03-15T07:10:49;93724.88;;;6.03;48.87
42247;BME280;27913;42.722;23.268;2023-03-15T07:13:16;93791.31;;;6.51;49.13
42247;BME280;27913;42.722;23.268;2023-03-15T07:15:42;93791.19;;;6.66;50.76
42247;BME280;27913;42.722;23.268;2023-03-15T07:18:08;93796.72;;;6.78;49.73
42247;BME280;27913;42.722;23.268;2023-03-15T07:20:33;93789.13;;;6.90;48.90
42247;BME280;27913;42.722;23.268;2023-03-15T07:22:59;93793.00;;;7.01;49.08
42247;BME280;27913;42.722;23.268;2023-03-15T07:25:24;93793.81;;;7.08;48.67
42247;BME280;27913;42.722;23.268;2023-03-15T07:27:51;93795.47;;;7.16;48.97
42247;BME280;27913;42.722;23.268;2023-03-15T07:30:18;93782.19;;;7.18;49.54
42247;BME280;27913;42.722;23.268;2023-03-15T07:32:43;93748.09;;;6.91;47.92
42247;BME280;27913;42.722;23.268;2023-03-15T07:35:09;93796.31;;;7.23;47.85
42247;BME280;27913;42.722;23.268;2023-03-15T07:37:35;93731.97;;;6.80;47.42
42247;BME280;27913;42.722;23.268;2023-03-15T07:40:00;93779.78;;;7.16;47.30
42247;BME280;27913;42.722;23.268;2023-03-15T07:42:35;93736.19;;;6.74;47.71
42247;BME280;27913;42.722;23.268;2023-03-15T07:45:01;93786.63;;;7.17;47.70
42247;BME280;27913;42.722;23.268;2023-03-15T07:47:27;93789.63;;;7.14;48.01
42247;BME280;27913;42.722;23.268;2023-03-15T07:49:52;93776.75;;;7.12;47.33
42247;BME280;27913;42.722;23.268;2023-03-15T07:52:19;93751.41;;;7.06;48.24
42247;BME280;27913;42.722;23.268;2023-03-15T07:54:45;93747.81;;;7.21;48.59
42247;BME280;27913;42.722;23.268;2023-03-15T07:57:11;93772.41;;;7.47;48.18
42247;BME280;27913;42.722;23.268;2023-03-15T07:59:37;93767.81;;;7.63;48.09
42247;BME280;27913;42.722;23.268;2023-03-15T08:02:03;93773.09;;;7.69;47.26
42247;BME280;27913;42.722;23.268;2023-03-15T08:04:28;93698.38;;;7.40;47.40
42247;BME280;27913;42.722;23.268;2023-03-15T08:06:54;93763.03;;;7.93;47.19
42247;BME280;27913;42.722;23.268;2023-03-15T08:09:19;93763.84;;;8.01;46.79
42247;BME280;27913;42.722;23.268;2023-03-15T08:11:45;93760.22;;;7.88;46.12
42247;BME280;27913;42.722;23.268;2023-03-15T08:14:10;93766.84;;;7.91;45.92
42247;BME280;27913;42.722;23.268;2023-03-15T08:16:36;93758.41;;;7.89;45.99
42247;BME280;27913;42.722;23.268;2023-03-15T08:19:01;93667.78;;;7.47;46.56
42247;BME280;27913;42.722;23.268;2023-03-15T08:21:27;93744.72;;;7.93;45.98
42247;BME280;27913;42.722;23.268;2023-03-15T08:24:01;93713.50;;;7.78;46.39
42247;BME280;27913;42.722;23.268;2023-03-15T08:26:27;93716.13;;;7.78;45.61
42247;BME280;27913;42.722;23.268;2023-03-15T08:28:56;93662.56;;;7.40;45.73
42247;BME280;27913;42.722;23.268;2023-03-15T08:31:22;93733.03;;;7.89;45.42
42247;BME280;27913;42.722;23.268;2023-03-15T08:33:47;93747.53;;;8.05;45.71
42247;BME280;27913;42.722;23.268;2023-03-15T08:36:13;93747.53;;;8.12;45.89
42247;BME280;27913;42.722;23.268;2023-03-15T08:38:39;93743.91;;;8.13;45.91
42247;BME280;27913;42.722;23.268;2023-03-15T08:41:04;93714.91;;;8.08;46.88
42247;BME280;27913;42.722;23.268;2023-03-15T08:43:30;93742.47;;;8.31;46.13
42247;BME280;27913;42.722;23.268;2023-03-15T08:45:55;93672.00;;;7.75;46.14
42247;BME280;27913;42.722;23.268;2023-03-15T08:48:22;93633.78;;;7.60;46.55
42247;BME280;27913;42.722;23.268;2023-03-15T08:50:47;93730.78;;;8.33;46.93
42247;BME280;27913;42.722;23.268;2023-03-15T08:53:13;93698.34;;;8.21;46.96
42247;BME280;27913;42.722;23.268;2023-03-15T08:55:39;93679.44;;;8.12;46.79
42247;BME280;27913;42.722;23.268;2023-03-15T08:58:05;93743.63;;;8.49;46.21
42247;BME280;27913;42.722;23.268;2023-03-15T09:00:30;93740.63;;;8.52;46.56
42247;BME280;27913;42.722;23.268;2023-03-15T09:02:56;93696.13;;;8.25;46.27
42247;BME280;27913;42.722;23.268;2023-03-15T09:05:23;93692.31;;;8.27;46.19
42247;BME280;27913;42.722;23.268;2023-03-15T09:07:49;93735.59;;;8.57;45.94
42247;BME280;27913;42.722;23.268;2023-03-15T09:10:17;93737.19;;;8.65;46.45
42247;BME280;27913;42.722;23.268;2023-03-15T09:12:46;93717.88;;;8.59;46.34
42247;BME280;27913;42.722;23.268;2023-03-15T09:15:11;93739.59;;;8.80;46.84
42247;BME280;27913;42.722;23.268;2023-03-15T09:17:40;93730.25;;;8.91;46.08
42247;BME280;27913;42.722;23.268;2023-03-15T09:20:08;93730.84;;;8.93;45.89
42247;BME280;27913;42.722;23.268;2023-03-15T09:22:39;93727.22;;;8.94;45.78
42247;BME280;27913;42.722;23.268;2023-03-15T09:25:05;93641.06;;;8.52;46.25
42247;BME280;27913;42.722;23.268;2023-03-15T09:27:31;93701.56;;;8.96;46.34
42247;BME280;27913;42.722;23.268;2023-03-15T09:29:57;93724.13;;;9.11;45.86
42247;BME280;27913;42.722;23.268;2023-03-15T09:32:23;93641.44;;;8.62;46.39
42247;BME280;27913;42.722;23.268;2023-03-15T09:34:50;93721.41;;;9.24;46.17
42247;BME280;27913;42.722;23.268;2023-03-15T09:37:16;93701.84;;;9.27;46.15
42247;BME280;27913;42.722;23.268;2023-03-15T09:39:41;93693.88;;;9.40;46.39
42247;BME280;27913;42.722;23.268;2023-03-15T09:42:15;93675.44;;;9.54;45.97
42247;BME280;27913;42.722;23.268;2023-03-15T09:44:48;93648.69;;;9.38;44.94
42247;BME280;27913;42.722;23.268;2023-03-15T09:50:03;93665.19;;;9.46;44.63
42247;BME280;27913;42.722;23.268;2023-03-15T09:52:40;93681.75;;;9.72;45.24
42247;BME280;27913;42.722;23.268;2023-03-15T09:55:19;93594.88;;;9.29;44.55
42247;BME280;27913;42.722;23.268;2023-03-15T09:57:50;93685.28;;;9.84;44.59
42247;BME280;27913;42.722;23.268;2023-03-15T10:00:25;93660.56;;;9.73;44.75
42247;BME280;27913;42.722;23.268;2023-03-15T10:02:58;93629.53;;;9.63;44.82
42247;BME280;27913;42.722;23.268;2023-03-15T10:05:41;93651.22;;;9.77;44.68
42247;BME280;27913;42.722;23.268;2023-03-15T10:08:12;93692.28;;;9.97;44.31
42247;BME280;27913;42.722;23.268;2023-03-15T10:10:46;93697.25;;;9.80;44.32
42247;BME280;27913;42.722;23.268;2023-03-15T10:16:42;93669.00;;;9.50;44.70
42247;BME280;27913;42.722;23.268;2023-03-15T10:22:02;93705.03;;;9.94;45.75
42247;BME280;27913;42.722;23.268;2023-03-15T10:27:32;93662.72;;;10.02;43.81
42247;BME280;27913;42.722;23.268;2023-03-15T10:29:59;93697.38;;;10.36;43.40
42247;BME280;27913;42.722;23.268;2023-03-15T10:32:33;93671.22;;;10.23;43.36
42247;BME280;27913;42.722;23.268;2023-03-15T10:35:10;93688.38;;;10.44;43.11
42247;BME280;27913;42.722;23.268;2023-03-15T10:37:37;93683.00;;;10.39;42.48
42247;BME280;27913;42.722;23.268;2023-03-15T10:40:03;93606.47;;;9.91;42.87
42247;BME280;27913;42.722;23.268;2023-03-15T10:42:32;93692.81;;;10.50;42.69
42247;BME280;27913;42.722;23.268;2023-03-15T10:45:11;93696.72;;;10.41;42.70
42247;BME280;27913;42.722;23.268;2023-03-15T10:47:42;93692.53;;;10.33;42.91
42247;BME280;27913;42.722;23.268;2023-03-15T10:52:54;93637.28;;;10.02;43.28
42247;BME280;27913;42.722;23.268;2023-03-15T10:55:28;93680.34;;;10.39;43.05
42247;BME280;27913;42.722;23.268;2023-03-15T10:57:57;93671.97;;;10.30;43.62
42247;BME280;27913;42.722;23.268;2023-03-15T11:00:31;93689.91;;;10.33;43.22
42247;BME280;27913;42.722;23.268;2023-03-15T11:03:06;93693.63;;;10.25;43.34
42247;BME280;27913;42.722;23.268;2023-03-15T11:05:44;93595.13;;;9.72;43.26
42247;BME280;27913;42.722;23.268;2023-03-15T11:08:20;93669.84;;;10.20;43.30
42247;BME280;27913;42.722;23.268;2023-03-15T11:10:57;93652.75;;;10.11;43.72
42247;BME280;27913;42.722;23.268;2023-03-15T11:13:25;93689.88;;;10.40;43.67
42247;BME280;27913;42.722;23.268;2023-03-15T11:16:07;93654.16;;;10.13;43.28
42247;BME280;27913;42.722;23.268;2023-03-15T11:18:45;93643.03;;;9.93;43.46
42247;BME280;27913;42.722;23.268;2023-03-15T11:21:13;93656.47;;;10.03;43.69
42247;BME280;27913;42.722;23.268;2023-03-15T11:23:42;93670.84;;;10.19;43.82
42247;BME280;27913;42.722;23.268;2023-03-15T11:26:23;93683.56;;;10.22;43.16
42247;BME280;27913;42.722;23.268;2023-03-15T11:28:53;93632.38;;;9.87;43.35
42247;BME280;27913;42.722;23.268;2023-03-15T11:31:21;93649.97;;;10.06;43.73
42247;BME280;27913;42.722;23.268;2023-03-15T11:34:11;93691.91;;;10.38;43.82
42247;BME280;27913;42.722;23.268;2023-03-15T11:36:41;93691.59;;;10.46;43.68
42247;BME280;27913;42.722;23.268;2023-03-15T11:39:12;93661.38;;;10.18;46.33
42247;BME280;27913;42.722;23.268;2023-03-15T11:41:45;93590.69;;;9.72;49.34
42247;BME280;27913;42.722;23.268;2023-03-15T11:44:29;93662.03;;;9.88;51.43
42247;BME280;27913;42.722;23.268;2023-03-15T11:47:03;93648.94;;;9.62;52.96
42247;BME280;27913;42.722;23.268;2023-03-15T11:49:35;93642.59;;;9.45;54.51
42247;BME280;27913;42.722;23.268;2023-03-15T11:52:02;93671.09;;;9.41;57.05
42247;BME280;27913;42.722;23.268;2023-03-15T11:54:29;93678.63;;;9.30;60.56
42247;BME280;27913;42.722;23.268;2023-03-15T11:57:07;93659.84;;;8.94;63.50
42247;BME280;27913;42.722;23.268;2023-03-15T11:59:51;93625.13;;;8.60;68.99
42247;BME280;27913;42.722;23.268;2023-03-15T12:04:47;93647.69;;;8.61;70.42
42247;BME280;27913;42.722;23.268;2023-03-15T12:09:50;93605.03;;;8.33;67.68
42247;BME280;27913;42.722;23.268;2023-03-15T12:17:37;93656.47;;;8.80;66.25
42247;BME280;27913;42.722;23.268;2023-03-15T12:20:10;93633.75;;;8.67;66.07
42247;BME280;27913;42.722;23.268;2023-03-15T12:22:41;93655.84;;;8.92;64.08
42247;BME280;27913;42.722;23.268;2023-03-15T12:25:12;93623.09;;;8.62;63.74
42247;BME280;27913;42.722;23.268;2023-03-15T12:27:45;93618.19;;;8.79;63.30
42247;BME280;27913;42.722;23.268;2023-03-15T12:30:41;93591.47;;;8.57;62.25
42247;BME280;27913;42.722;23.268;2023-03-15T12:33:19;93628.84;;;8.85;62.99
42247;BME280;27913;42.722;23.268;2023-03-15T12:35:46;93638.25;;;8.99;61.99
42247;BME280;27913;42.722;23.268;2023-03-15T12:38:21;93646.88;;;9.06;61.67
42247;BME280;27913;42.722;23.268;2023-03-15T12:40:55;93592.34;;;8.83;60.14
42247;BME280;27913;42.722;23.268;2023-03-15T12:43:44;93568.69;;;8.64;59.42
42247;BME280;27913;42.722;23.268;2023-03-15T12:51:59;93630.63;;;9.23;57.10
42247;BME280;27913;42.722;23.268;2023-03-15T12:54:45;93637.47;;;9.31;56.12
42247;BME280;27913;42.722;23.268;2023-03-15T12:57:23;93611.28;;;9.17;55.48
42247;BME280;27913;42.722;23.268;2023-03-15T12:59:55;93629.00;;;9.29;54.48
42247;BME280;27913;42.722;23.268;2023-03-15T13:05:32;93624.88;;;9.40;54.25
42247;BME280;27913;42.722;23.268;2023-03-15T13:08:22;93636.97;;;9.41;54.29
42247;BME280;27913;42.722;23.268;2023-03-15T13:14:04;93580.09;;;9.09;53.74
42247;BME280;27913;42.722;23.268;2023-03-15T13:16:36;93603.22;;;9.19;54.40
42247;BME280;27913;42.722;23.268;2023-03-15T13:30:46;93616.34;;;9.45;52.85
42247;BME280;27913;42.722;23.268;2023-03-15T13:32:47;93622.25;;;9.40;52.66
42247;BME280;27913;42.722;23.268;2023-03-15T13:35:13;93575.81;;;9.15;52.17
42247;BME280;27913;42.722;23.268;2023-03-15T13:37:38;93608.97;;;9.35;52.88
42247;BME280;27913;42.722;23.268;2023-03-15T13:40:12;93610.72;;;9.41;53.21
42247;BME280;27913;42.722;23.268;2023-03-15T13:42:40;93626.19;;;9.49;53.45
42247;BME280;27913;42.722;23.268;2023-03-15T13:45:11;93650.19;;;9.53;54.05
42247;BME280;27913;42.722;23.268;2023-03-15T13:47:39;93590.22;;;9.31;53.60
42247;BME280;27913;42.722;23.268;2023-03-15T13:50:05;93587.13;;;9.41;53.35
42247;BME280;27913;42.722;23.268;2023-03-15T13:52:31;93584.81;;;9.26;53.95
42247;BME280;27913;42.722;23.268;2023-03-15T13:54:58;93593.81;;;9.37;54.46
42247;BME280;27913;42.722;23.268;2023-03-15T13:57:24;93631.94;;;9.65;54.13
42247;BME280;27913;42.722;23.268;2023-03-15T13:59:58;93600.66;;;9.38;54.71
42247;BME280;27913;42.722;23.268;2023-03-15T14:02:34;93619.75;;;9.52;55.51
42247;BME280;27913;42.722;23.268;2023-03-15T14:05:05;93641.06;;;9.62;56.03
42247;BME280;27913;42.722;23.268;2023-03-15T14:07:38;93651.50;;;9.69;56.36